createdAt,value
2024-02-14T00:03:21.666Z,2.03
2024-02-14T00:09:25.503Z,1.90
2024-02-14T00:12:27.181Z,1.95
2024-02-14T00:15:28.922Z,1.45
2024-02-14T00:18:30.747Z,1.73
2024-02-14T00:21:32.804Z,1.67
2024-02-14T00:24:36.860Z,1.75
2024-02-14T00:27:38.528Z,1.60
2024-02-14T00:30:40.269Z,1.48
2024-02-14T00:33:42.437Z,1.58
2024-02-14T00:36:44.194Z,1.60
2024-02-14T00:39:45.882Z,1.83
2024-02-14T00:42:47.624Z,1.65
2024-02-14T00:45:49.236Z,1.30
2024-02-14T00:48:51.327Z,1.90
2024-02-14T00:51:53.048Z,1.70
2024-02-14T00:54:54.654Z,1.50
2024-02-14T00:57:56.308Z,1.60
2024-02-14T01:00:57.956Z,1.40
2024-02-14T01:03:59.593Z,1.45
2024-02-14T01:07:01.206Z,1.20
2024-02-14T01:10:03.227Z,1.77
2024-02-14T01:13:06.155Z,1.60
2024-02-14T01:16:08.914Z,1.75
2024-02-14T01:19:11.439Z,1.60
2024-02-14T01:22:13.250Z,1.48
2024-02-14T01:25:14.901Z,1.45
2024-02-14T01:28:16.543Z,1.83
2024-02-14T01:31:18.238Z,1.58
2024-02-14T01:34:20.337Z,1.35
2024-02-14T01:37:22.170Z,1.40
2024-02-14T01:40:24.003Z,1.40
2024-02-14T01:43:25.622Z,1.25
2024-02-14T01:46:27.375Z,1.70
2024-02-14T01:49:29.634Z,1.30
2024-02-14T01:52:31.445Z,1.70
2024-02-14T01:55:34.376Z,1.50
2024-02-14T01:58:36.486Z,1.20
2024-02-14T02:01:38.236Z,1.45
2024-02-14T02:04:39.864Z,1.50
2024-02-14T02:07:44.033Z,1.45
2024-02-14T02:10:45.758Z,2.20
2024-02-14T02:13:47.435Z,1.35
2024-02-14T02:16:50.332Z,1.30
2024-02-14T02:19:54.796Z,1.90
2024-02-14T02:22:56.912Z,1.60
2024-02-14T02:25:58.575Z,1.50
2024-02-14T02:29:01.006Z,1.50
2024-02-14T02:32:02.746Z,1.53
2024-02-14T02:35:05.872Z,1.40
2024-02-14T02:38:07.527Z,1.30
2024-02-14T02:41:09.211Z,1.20
2024-02-14T02:44:10.849Z,1.50
2024-02-14T02:47:13.715Z,1.30
2024-02-14T02:50:15.369Z,1.60
2024-02-14T02:53:17.851Z,1.60
2024-02-14T02:56:19.817Z,1.60
2024-02-14T02:59:21.468Z,1.40
2024-02-14T03:02:23.962Z,1.52
2024-02-14T03:05:25.818Z,1.30
2024-02-14T03:08:27.604Z,1.30
2024-02-14T03:11:29.405Z,1.63
2024-02-14T03:14:33.544Z,1.73
2024-02-14T03:17:35.704Z,1.33
2024-02-14T03:20:37.599Z,1.23
2024-02-14T03:23:41.003Z,1.30
2024-02-14T03:29:45.344Z,1.20
2024-02-14T03:32:47.734Z,1.40
2024-02-14T03:35:49.648Z,1.50
2024-02-14T03:38:51.343Z,1.40
2024-02-14T03:41:54.066Z,1.23
2024-02-14T03:45:03.520Z,1.30
2024-02-14T03:48:06.024Z,1.20
2024-02-14T03:51:07.728Z,1.40
2024-02-14T03:54:09.432Z,1.33
2024-02-14T03:57:11.119Z,1.42
2024-02-14T04:00:13.444Z,1.35
2024-02-14T04:03:15.287Z,1.10
2024-02-14T04:06:17.906Z,1.30
2024-02-14T04:09:19.712Z,1.45
2024-02-14T04:12:21.978Z,1.20
2024-02-14T04:15:23.763Z,1.30
2024-02-14T04:18:25.632Z,1.33
2024-02-14T04:21:27.405Z,1.40
2024-02-14T04:24:29.053Z,1.27
2024-02-14T04:27:30.739Z,1.40
2024-02-14T04:30:32.680Z,1.58
2024-02-14T04:33:34.565Z,1.58
2024-02-14T04:36:36.718Z,1.70
2024-02-14T04:39:38.680Z,1.70
2024-02-14T04:42:40.353Z,1.50
2024-02-14T04:45:42.689Z,1.63
2024-02-14T04:48:44.527Z,1.50
2024-02-14T04:51:46.277Z,1.52
2024-02-14T04:54:48.002Z,1.38
2024-02-14T04:57:49.703Z,1.30
2024-02-14T05:00:51.469Z,1.45
2024-02-14T05:03:53.317Z,1.40
2024-02-14T05:06:58.455Z,1.30
2024-02-14T05:10:01.030Z,1.42
2024-02-14T05:13:02.719Z,1.40
2024-02-14T05:16:05.509Z,1.65
2024-02-14T05:19:07.339Z,1.30
2024-02-14T05:22:09.199Z,1.20
2024-02-14T05:25:11.134Z,1.30
2024-02-14T05:28:14.648Z,1.77
2024-02-14T05:31:17.456Z,1.58
2024-02-14T05:34:19.723Z,1.73
2024-02-14T05:37:21.485Z,1.30
2024-02-14T05:40:23.104Z,1.50
2024-02-14T05:43:25.296Z,1.70
2024-02-14T05:46:27.003Z,1.40
2024-02-14T05:49:28.733Z,1.77
2024-02-14T05:52:30.440Z,1.65
2024-02-14T05:55:32.175Z,1.67
2024-02-14T05:58:33.792Z,1.63
2024-02-14T06:01:36.601Z,1.85
2024-02-14T06:04:38.491Z,1.63
2024-02-14T06:07:41.421Z,1.75
2024-02-14T06:10:43.158Z,1.83
2024-02-14T06:13:45.560Z,2.33
2024-02-14T06:16:47.614Z,2.00
2024-02-14T06:19:49.324Z,2.10
2024-02-14T06:22:57.432Z,2.10
2024-02-14T06:26:06.406Z,1.90
2024-02-14T06:29:08.055Z,2.20
2024-02-14T06:32:09.713Z,2.10
2024-02-14T06:35:11.435Z,2.28
2024-02-14T06:38:13.282Z,2.60
2024-02-14T06:41:14.885Z,2.72
2024-02-14T06:44:16.853Z,2.47
2024-02-14T06:47:19.359Z,2.25
2024-02-14T06:50:21.167Z,2.40
2024-02-14T06:53:23.682Z,2.85
2024-02-14T06:56:25.314Z,2.70
2024-02-14T06:59:27.496Z,2.47
2024-02-14T07:02:29.523Z,3.17
2024-02-14T07:05:31.417Z,2.38
2024-02-14T07:08:33.118Z,3.10
2024-02-14T07:11:35.192Z,2.85
2024-02-14T07:14:36.955Z,2.92
2024-02-14T07:17:39.683Z,2.90
2024-02-14T07:20:41.616Z,2.90
2024-02-14T07:23:43.438Z,3.03
2024-02-14T07:26:45.869Z,3.42
2024-02-14T07:29:47.788Z,3.10
2024-02-14T07:32:49.561Z,3.13
2024-02-14T07:35:51.519Z,3.38
2024-02-14T07:38:53.273Z,2.78
2024-02-14T07:41:54.949Z,3.20
2024-02-14T07:44:57.851Z,3.53
2024-02-14T07:47:59.690Z,3.35
2024-02-14T07:51:02.187Z,2.78
2024-02-14T07:54:07.805Z,3.40
2024-02-14T07:57:09.656Z,3.40
2024-02-14T08:00:11.995Z,2.60
2024-02-14T08:03:14.530Z,3.30
2024-02-14T08:06:16.290Z,2.80
2024-02-14T08:09:18.132Z,2.88
2024-02-14T08:12:19.816Z,3.28
2024-02-14T08:15:22.072Z,2.88
2024-02-14T08:18:24.508Z,3.07
2024-02-14T08:21:31.377Z,3.00
2024-02-14T08:24:33.963Z,3.13
2024-02-14T08:27:35.642Z,3.00
2024-02-14T08:30:39.044Z,3.20
2024-02-14T08:33:40.940Z,3.55
2024-02-14T08:36:43.435Z,3.03
2024-02-14T08:39:45.306Z,3.30
2024-02-14T08:42:47.528Z,3.10
2024-02-14T08:45:49.140Z,2.92
2024-02-14T08:48:51.388Z,2.97
2024-02-14T08:51:53.303Z,2.70
2024-02-14T08:54:54.972Z,2.85
2024-02-14T08:57:56.891Z,2.70
2024-02-14T09:01:05.387Z,3.00
2024-02-14T09:04:15.300Z,2.80
2024-02-14T09:07:17.194Z,2.83
2024-02-14T09:10:18.919Z,2.67
2024-02-14T09:13:20.851Z,2.97
2024-02-14T09:16:23.469Z,2.97
2024-02-14T09:19:26.434Z,2.25
2024-02-14T09:22:28.246Z,2.42
2024-02-14T09:25:29.913Z,2.55
2024-02-14T09:28:31.571Z,2.42
2024-02-14T09:31:33.183Z,2.70
2024-02-14T09:34:35.859Z,2.40
2024-02-14T09:37:39.454Z,2.53
2024-02-14T09:40:42.332Z,2.38
2024-02-14T09:43:46.116Z,1.90
2024-02-14T09:46:48.751Z,2.40
2024-02-14T09:49:52.904Z,2.10
2024-02-14T09:52:55.849Z,1.95
2024-02-14T09:55:58.331Z,1.83
2024-02-14T09:59:01.646Z,2.03
2024-02-14T10:02:03.409Z,1.88
2024-02-14T10:05:05.793Z,2.00
2024-02-14T10:08:10.059Z,1.90
2024-02-14T10:11:12.130Z,1.88
2024-02-14T10:14:14.565Z,2.08
2024-02-14T10:17:19.938Z,2.10
2024-02-14T10:20:22.765Z,2.78
2024-02-14T10:23:24.781Z,1.50
2024-02-14T10:26:26.406Z,1.40
2024-02-14T10:29:28.463Z,1.48
2024-02-14T10:32:30.203Z,1.45
2024-02-14T10:35:32.885Z,6.05
2024-02-14T10:38:35.191Z,1.30
2024-02-14T10:41:36.968Z,1.40
2024-02-14T10:44:38.720Z,1.23
2024-02-14T10:47:45.397Z,0.90
2024-02-14T10:50:50.355Z,1.30
2024-02-14T10:53:53.949Z,1.23
2024-02-14T10:56:59.554Z,1.00
2024-02-14T11:00:08.552Z,1.00
2024-02-14T11:03:11.766Z,1.02
2024-02-14T11:09:21.729Z,0.90
2024-02-14T11:12:24.553Z,1.10
2024-02-14T11:15:26.653Z,1.10
2024-02-14T11:18:34.456Z,1.20
2024-02-14T11:21:38.161Z,1.00
2024-02-14T11:24:40.379Z,1.00
2024-02-14T11:27:46.841Z,1.30
2024-02-14T11:30:49.283Z,0.82
2024-02-14T11:33:51.853Z,1.10
2024-02-14T11:36:53.680Z,0.60
2024-02-14T11:39:59.168Z,0.85
2024-02-14T11:43:00.904Z,0.90
2024-02-14T11:46:05.552Z,1.05
2024-02-14T11:49:10.891Z,0.93
2024-02-14T11:52:15.234Z,0.90
2024-02-14T11:55:19.014Z,0.95
2024-02-14T11:58:20.633Z,0.80
2024-02-14T12:01:22.709Z,1.08
2024-02-14T12:04:24.808Z,0.90
2024-02-14T12:07:27.134Z,0.85
2024-02-14T12:10:28.885Z,0.60
2024-02-14T12:13:33.551Z,0.82
2024-02-14T12:16:37.315Z,0.73
2024-02-14T12:19:39.474Z,0.65
2024-02-14T12:22:41.795Z,0.80
2024-02-14T12:25:43.427Z,0.50
2024-02-14T12:28:48.217Z,0.75
2024-02-14T12:31:49.870Z,0.65
2024-02-14T12:34:51.548Z,0.70
2024-02-14T12:37:55.065Z,1.45
2024-02-14T12:40:56.873Z,0.65
2024-02-14T12:44:01.131Z,1.02
2024-02-14T12:47:02.887Z,0.70
2024-02-14T12:50:05.074Z,0.65
2024-02-14T12:53:08.997Z,0.80
2024-02-14T12:56:10.772Z,0.80
2024-02-14T12:59:19.261Z,0.70
2024-02-14T13:02:22.029Z,0.70
2024-02-14T13:05:23.621Z,0.70
2024-02-14T13:08:25.219Z,0.55
2024-02-14T13:11:26.909Z,0.80
2024-02-14T13:14:29.621Z,0.70
2024-02-14T13:17:31.398Z,0.93
2024-02-14T13:20:33.543Z,1.08
2024-02-14T13:23:35.377Z,0.77
2024-02-14T13:26:37.269Z,0.60
2024-02-14T13:29:39.378Z,0.80
2024-02-14T13:32:41.244Z,0.82
2024-02-14T13:35:43.000Z,0.98
2024-02-14T13:38:45.969Z,1.25
2024-02-14T13:41:48.875Z,0.70
2024-02-14T13:44:50.781Z,0.77
2024-02-14T13:48:03.901Z,1.52
2024-02-14T13:51:05.885Z,0.88
2024-02-14T13:54:08.182Z,0.93
2024-02-14T13:57:09.839Z,0.93
2024-02-14T14:00:12.571Z,0.75
2024-02-14T14:03:14.669Z,1.05
2024-02-14T14:06:16.446Z,0.90
2024-02-14T14:09:18.297Z,0.80
2024-02-14T14:12:19.949Z,1.50
2024-02-14T14:15:23.376Z,0.82
2024-02-14T14:18:25.271Z,0.88
2024-02-14T14:21:27.333Z,0.90
2024-02-14T14:24:32.175Z,1.10
2024-02-14T14:27:34.146Z,1.10
2024-02-14T14:30:36.695Z,1.00
2024-02-14T14:33:41.471Z,1.10
2024-02-14T14:36:43.256Z,1.00
2024-02-14T14:39:46.040Z,0.98
2024-02-14T14:42:47.913Z,0.93
2024-02-14T14:45:50.869Z,0.80
2024-02-14T14:48:52.770Z,1.23
2024-02-14T14:51:55.337Z,0.90
2024-02-14T14:54:58.154Z,1.40
2024-02-14T14:58:14.043Z,1.00
2024-02-14T15:01:16.522Z,0.82
2024-02-14T15:04:20.062Z,0.80
2024-02-14T15:07:22.282Z,1.30
2024-02-14T15:10:24.140Z,1.00
2024-02-14T15:13:26.770Z,0.82
2024-02-14T15:16:29.752Z,0.80
2024-02-14T15:19:31.387Z,1.00
2024-02-14T15:22:33.023Z,0.70
2024-02-14T15:25:35.789Z,0.65
2024-02-14T15:28:41.555Z,1.02
2024-02-14T15:32:01.875Z,0.80
2024-02-14T15:35:05.720Z,0.80
2024-02-14T15:38:07.450Z,0.70
2024-02-14T15:41:10.519Z,0.70
2024-02-14T15:44:12.935Z,1.23
2024-02-14T15:47:14.582Z,1.10
2024-02-14T15:50:16.274Z,1.00
2024-02-14T15:53:17.932Z,1.00
2024-02-14T15:56:19.695Z,3.25
2024-02-14T15:59:21.559Z,2.58
2024-02-14T16:02:23.250Z,1.80
2024-02-14T16:05:25.211Z,7.22
2024-02-14T16:08:28.840Z,1.23
2024-02-14T16:11:32.025Z,1.00
2024-02-14T16:14:33.793Z,1.05
2024-02-14T16:17:35.624Z,1.20
2024-02-14T16:20:37.981Z,1.35
2024-02-14T16:23:39.623Z,1.30
2024-02-14T16:26:41.311Z,1.60
2024-02-14T16:29:43.057Z,1.40
2024-02-14T16:32:45.161Z,2.33
2024-02-14T16:35:47.623Z,1.60
2024-02-14T16:38:49.349Z,1.42
2024-02-14T16:41:51.023Z,1.60
2024-02-14T16:44:53.580Z,1.58
2024-02-14T16:47:55.554Z,2.30
2024-02-14T16:50:57.346Z,2.60
2024-02-14T16:53:59.121Z,2.88
2024-02-14T16:57:11.694Z,3.60
2024-02-14T17:00:14.415Z,3.33
2024-02-14T17:03:17.440Z,3.53
2024-02-14T17:06:20.548Z,4.93
2024-02-14T17:09:22.927Z,5.03
2024-02-14T17:12:24.766Z,4.25
2024-02-14T17:15:26.429Z,3.45
2024-02-14T17:18:30.509Z,2.25
2024-02-14T17:21:32.171Z,4.00
2024-02-14T17:24:33.841Z,2.08
2024-02-14T17:27:35.827Z,3.08
2024-02-14T17:30:39.043Z,4.07
2024-02-14T17:33:41.691Z,2.53
2024-02-14T17:36:45.229Z,2.35
2024-02-14T17:39:46.860Z,4.30
2024-02-14T17:42:48.492Z,2.42
2024-02-14T17:45:50.512Z,3.55
2024-02-14T17:48:52.396Z,7.35
2024-02-14T17:51:54.094Z,2.45
2024-02-14T17:54:57.074Z,2.40
2024-02-14T17:57:58.689Z,3.20
2024-02-14T18:01:00.873Z,3.40
2024-02-14T18:04:05.511Z,2.53
2024-02-14T18:07:07.309Z,2.05
2024-02-14T18:10:09.291Z,2.08
2024-02-14T18:13:11.688Z,2.35
2024-02-14T18:16:13.305Z,2.38
2024-02-14T18:19:15.094Z,3.83
2024-02-14T18:22:17.065Z,2.25
2024-02-14T18:25:18.686Z,1.45
2024-02-14T18:28:21.317Z,1.85
2024-02-14T18:31:23.284Z,2.30
2024-02-14T18:34:25.114Z,5.65
2024-02-14T18:37:26.809Z,1.98
2024-02-14T18:40:28.496Z,2.72
2024-02-14T18:43:30.388Z,1.70
2024-02-14T18:46:33.606Z,2.40
2024-02-14T18:52:37.484Z,2.38
2024-02-14T18:55:39.290Z,2.63
2024-02-14T18:58:41.123Z,3.13
2024-02-14T19:01:42.927Z,4.40
2024-02-14T19:04:44.628Z,4.13
2024-02-14T19:07:46.262Z,4.85
2024-02-14T19:10:47.896Z,4.78
2024-02-14T19:13:52.227Z,4.88
2024-02-14T19:16:55.491Z,5.15
2024-02-14T19:19:57.252Z,5.90
2024-02-14T19:22:58.951Z,4.80
2024-02-14T19:26:00.579Z,4.82
2024-02-14T19:29:03.783Z,4.57
2024-02-14T19:32:06.385Z,6.43
2024-02-14T19:35:09.185Z,5.15
2024-02-14T19:38:10.881Z,13.23
2024-02-14T19:41:12.521Z,8.57
2024-02-14T19:44:14.193Z,5.00
2024-02-14T19:47:16.811Z,4.82
2024-02-14T19:50:19.829Z,4.60
2024-02-14T19:53:22.055Z,4.93
2024-02-14T19:56:24.419Z,4.72
2024-02-14T19:59:26.097Z,4.00
2024-02-14T20:02:29.145Z,4.18
2024-02-14T20:05:36.130Z,3.85
2024-02-14T20:08:38.806Z,3.88
2024-02-14T20:11:40.498Z,3.60
2024-02-14T20:14:42.322Z,3.80
2024-02-14T20:17:45.215Z,3.95
2024-02-14T20:20:48.445Z,3.22
2024-02-14T20:26:52.044Z,3.47
2024-02-14T20:29:53.846Z,2.65
2024-02-14T20:32:58.231Z,3.08
2024-02-14T20:36:00.026Z,3.35
2024-02-14T20:39:03.945Z,2.85
2024-02-14T20:42:07.247Z,3.20
2024-02-14T20:45:10.722Z,2.75
2024-02-14T20:48:13.190Z,3.25
2024-02-14T20:51:15.207Z,2.70
2024-02-14T20:54:16.864Z,2.65
2024-02-14T20:57:18.487Z,2.90
2024-02-14T21:00:20.608Z,3.00
2024-02-14T21:03:22.435Z,2.53
2024-02-14T21:06:24.426Z,2.72
2024-02-14T21:09:26.197Z,3.03
2024-02-14T21:12:27.767Z,3.05
2024-02-14T21:15:30.601Z,2.35
2024-02-14T21:18:32.570Z,2.53
2024-02-14T21:21:36.666Z,2.60
2024-02-14T21:24:40.202Z,2.75
2024-02-14T21:27:43.655Z,2.90
2024-02-14T21:30:45.532Z,2.10
2024-02-14T21:33:47.460Z,2.45
2024-02-14T21:36:49.199Z,2.30
2024-02-14T21:39:50.778Z,2.38
2024-02-14T21:42:52.431Z,1.95
2024-02-14T21:45:54.121Z,2.40
2024-02-14T21:48:58.904Z,2.05
2024-02-14T21:52:06.245Z,1.98
2024-02-14T21:55:08.912Z,1.80
2024-02-14T21:58:11.023Z,1.80
2024-02-14T22:01:12.932Z,1.40
2024-02-14T22:04:14.650Z,1.40
2024-02-14T22:07:17.416Z,1.75
2024-02-14T22:10:20.016Z,1.77
2024-02-14T22:13:21.613Z,1.48
2024-02-14T22:16:23.961Z,1.70
2024-02-14T22:19:25.790Z,1.57
2024-02-14T22:22:27.390Z,1.50
2024-02-14T22:25:29.051Z,1.33
2024-02-14T22:28:35.787Z,1.45
2024-02-14T22:31:38.232Z,1.83
2024-02-14T22:34:39.921Z,1.60
2024-02-14T22:37:41.550Z,1.58
2024-02-14T22:40:43.140Z,1.80
2024-02-14T22:43:46.385Z,1.65
2024-02-14T22:49:49.892Z,1.80
2024-02-14T22:52:51.876Z,1.90
2024-02-14T22:55:53.573Z,1.98
2024-02-14T22:58:56.218Z,1.90
2024-02-14T23:01:57.793Z,1.95
2024-02-14T23:04:59.994Z,2.10
2024-02-14T23:08:01.640Z,2.40
2024-02-14T23:11:03.258Z,2.30
2024-02-14T23:14:06.016Z,2.60
2024-02-14T23:17:08.117Z,2.50
2024-02-14T23:20:13.181Z,2.60
2024-02-14T23:23:15.347Z,2.80
2024-02-14T23:26:17.087Z,2.60
2024-02-14T23:29:18.695Z,3.22
2024-02-14T23:32:20.846Z,2.90
2024-02-14T23:35:22.501Z,2.95
2024-02-14T23:38:24.463Z,2.92
2024-02-14T23:41:26.334Z,2.92
2024-02-14T23:44:28.382Z,3.08
2024-02-14T23:47:30.250Z,2.80
2024-02-14T23:50:31.953Z,3.30
2024-02-14T23:53:33.639Z,3.03
2024-02-14T23:56:35.326Z,3.42
2024-02-14T23:59:37.047Z,3.45
